sensor_id;sensor_type;location;lat;lon;timestamp;temperature;humidity
19359;DHT22;9815;52.334;20.890;2024-03-22T00:02:07;8.60;99.90
19359;DHT22;9815;52.334;20.890;2024-03-22T00:04:35;8.50;99.90
19359;DHT22;9815;52.334;20.890;2024-03-22T00:07:01;8.50;99.90
19359;DHT22;9815;52.334;20.890;2024-03-22T00:09:28;8.50;99.90
19359;DHT22;9815;52.334;20.890;2024-03-22T00:11:54;8.50;99.90
19359;DHT22;9815;52.334;20.890;2024-03-22T00:14:20;8.40;99.90
19359;DHT22;9815;52.334;20.890;2024-03-22T00:16:47;8.40;99.90
19359;DHT22;9815;52.334;20.890;2024-03-22T00:19:13;8.40;99.90
19359;DHT22;9815;52.334;20.890;2024-03-22T00:21:39;8.40;99.90
19359;DHT22;9815;52.334;20.890;2024-03-22T00:24:05;8.40;99.90
19359;DHT22;9815;52.334;20.890;2024-03-22T00:26:31;8.40;99.90
19359;DHT22;9815;52.334;20.890;2024-03-22T00:28:57;8.40;99.90
19359;DHT22;9815;52.334;20.890;2024-03-22T00:31:26;8.30;99.90
19359;DHT22;9815;52.334;20.890;2024-03-22T00:33:52;8.30;99.90
19359;DHT22;9815;52.334;20.890;2024-03-22T00:36:18;8.30;99.90
19359;DHT22;9815;52.334;20.890;2024-03-22T00:38:45;8.30;99.90
19359;DHT22;9815;52.334;20.890;2024-03-22T00:41:12;8.40;99.90
19359;DHT22;9815;52.334;20.890;2024-03-22T00:43:38;8.40;99.90
19359;DHT22;9815;52.334;20.890;2024-03-22T00:46:04;8.30;99.90
19359;DHT22;9815;52.334;20.890;2024-03-22T00:48:30;8.30;99.90
19359;DHT22;9815;52.334;20.890;2024-03-22T00:50:56;8.30;99.90
19359;DHT22;9815;52.334;20.890;2024-03-22T00:53:22;8.30;99.90
19359;DHT22;9815;52.334;20.890;2024-03-22T00:55:48;8.30;99.90
19359;DHT22;9815;52.334;20.890;2024-03-22T00:58:18;8.30;99.90
19359;DHT22;9815;52.334;20.890;2024-03-22T01:00:44;8.30;99.90
19359;DHT22;9815;52.334;20.890;2024-03-22T01:03:10;8.30;99.90
19359;DHT22;9815;52.334;20.890;2024-03-22T01:05:37;8.30;99.90
19359;DHT22;9815;52.334;20.890;2024-03-22T01:08:04;8.30;99.90
19359;DHT22;9815;52.334;20.890;2024-03-22T01:10:30;8.30;99.90
19359;DHT22;9815;52.334;20.890;2024-03-22T01:12:57;8.20;99.90
19359;DHT22;9815;52.334;20.890;2024-03-22T01:15:22;8.20;99.90
19359;DHT22;9815;52.334;20.890;2024-03-22T01:17:48;8.30;99.90
19359;DHT22;9815;52.334;20.890;2024-03-22T01:20:15;8.30;99.90
19359;DHT22;9815;52.334;20.890;2024-03-22T01:22:41;8.30;99.90
19359;DHT22;9815;52.334;20.890;2024-03-22T01:25:07;8.30;99.90
19359;DHT22;9815;52.334;20.890;2024-03-22T01:27:36;8.40;99.90
19359;DHT22;9815;52.334;20.890;2024-03-22T01:30:03;8.40;99.90
19359;DHT22;9815;52.334;20.890;2024-03-22T01:32:29;8.40;99.90
19359;DHT22;9815;52.334;20.890;2024-03-22T01:34:55;8.40;99.90
19359;DHT22;9815;52.334;20.890;2024-03-22T01:37:21;8.30;99.90
19359;DHT22;9815;52.334;20.890;2024-03-22T01:39:47;8.30;99.90
19359;DHT22;9815;52.334;20.890;2024-03-22T01:42:13;8.30;99.90
19359;DHT22;9815;52.334;20.890;2024-03-22T01:44:39;8.40;99.90
19359;DHT22;9815;52.334;20.890;2024-03-22T01:47:05;8.30;99.90
19359;DHT22;9815;52.334;20.890;2024-03-22T01:49:31;8.30;99.90
19359;DHT22;9815;52.334;20.890;2024-03-22T01:51:57;8.30;99.90
19359;DHT22;9815;52.334;20.890;2024-03-22T01:54:23;8.30;99.90
19359;DHT22;9815;52.334;20.890;2024-03-22T01:56:49;8.30;99.90
19359;DHT22;9815;52.334;20.890;2024-03-22T01:59:15;8.30;99.90
19359;DHT22;9815;52.334;20.890;2024-03-22T02:01:42;8.30;99.90
19359;DHT22;9815;52.334;20.890;2024-03-22T02:04:08;8.30;99.90
19359;DHT22;9815;52.334;20.890;2024-03-22T02:06:35;8.30;99.90
19359;DHT22;9815;52.334;20.890;2024-03-22T02:09:01;8.30;99.90
19359;DHT22;9815;52.334;20.890;2024-03-22T02:11:30;8.40;99.90
19359;DHT22;9815;52.334;20.890;2024-03-22T02:13:57;8.40;99.90
19359;DHT22;9815;52.334;20.890;2024-03-22T02:16:23;8.40;99.90
19359;DHT22;9815;52.334;20.890;2024-03-22T02:18:49;8.40;99.90
19359;DHT22;9815;52.334;20.890;2024-03-22T02:21:16;8.40;99.90
19359;DHT22;9815;52.334;20.890;2024-03-22T02:23:42;8.30;99.90
19359;DHT22;9815;52.334;20.890;2024-03-22T02:26:08;8.30;99.90
19359;DHT22;9815;52.334;20.890;2024-03-22T02:28:35;8.30;99.90
19359;DHT22;9815;52.334;20.890;2024-03-22T02:31:02;8.30;99.90
19359;DHT22;9815;52.334;20.890;2024-03-22T02:33:29;8.50;99.90
19359;DHT22;9815;52.334;20.890;2024-03-22T02:35:55;8.50;99.90
19359;DHT22;9815;52.334;20.890;2024-03-22T02:38:22;8.50;99.90
19359;DHT22;9815;52.334;20.890;2024-03-22T02:40:50;8.50;99.90
19359;DHT22;9815;52.334;20.890;2024-03-22T02:43:16;8.60;99.90
19359;DHT22;9815;52.334;20.890;2024-03-22T02:45:47;8.50;99.90
19359;DHT22;9815;52.334;20.890;2024-03-22T02:48:14;8.50;99.90
19359;DHT22;9815;52.334;20.890;2024-03-22T02:50:40;8.40;99.90
19359;DHT22;9815;52.334;20.890;2024-03-22T02:53:07;8.50;99.90
19359;DHT22;9815;52.334;20.890;2024-03-22T02:55:37;8.50;99.90
19359;DHT22;9815;52.334;20.890;2024-03-22T02:58:03;8.40;99.90
19359;DHT22;9815;52.334;20.890;2024-03-22T03:00:30;8.50;99.90
19359;DHT22;9815;52.334;20.890;2024-03-22T03:02:56;8.50;99.90
19359;DHT22;9815;52.334;20.890;2024-03-22T03:05:21;8.30;99.90
19359;DHT22;9815;52.334;20.890;2024-03-22T03:07:50;8.30;99.90
19359;DHT22;9815;52.334;20.890;2024-03-22T03:10:17;8.30;99.90
19359;DHT22;9815;52.334;20.890;2024-03-22T03:12:43;8.20;99.90
19359;DHT22;9815;52.334;20.890;2024-03-22T03:15:09;8.10;99.90
19359;DHT22;9815;52.334;20.890;2024-03-22T03:17:35;8.20;99.90
19359;DHT22;9815;52.334;20.890;2024-03-22T03:20:01;8.20;99.90
19359;DHT22;9815;52.334;20.890;2024-03-22T03:22:27;8.20;99.90
19359;DHT22;9815;52.334;20.890;2024-03-22T03:24:53;8.10;99.90
19359;DHT22;9815;52.334;20.890;2024-03-22T03:27:19;8.10;99.90
19359;DHT22;9815;52.334;20.890;2024-03-22T03:29:45;8.10;99.90
19359;DHT22;9815;52.334;20.890;2024-03-22T03:32:11;7.90;99.90
19359;DHT22;9815;52.334;20.890;2024-03-22T03:34:37;7.90;99.90
19359;DHT22;9815;52.334;20.890;2024-03-22T03:37:03;7.80;99.90
19359;DHT22;9815;52.334;20.890;2024-03-22T03:39:29;7.70;99.90
19359;DHT22;9815;52.334;20.890;2024-03-22T03:41:55;7.60;99.90
19359;DHT22;9815;52.334;20.890;2024-03-22T03:44:21;7.60;99.90
19359;DHT22;9815;52.334;20.890;2024-03-22T03:46:48;7.50;99.90
19359;DHT22;9815;52.334;20.890;2024-03-22T03:49:13;7.50;99.90
19359;DHT22;9815;52.334;20.890;2024-03-22T03:51:40;7.60;99.90
19359;DHT22;9815;52.334;20.890;2024-03-22T03:54:06;7.50;99.90
19359;DHT22;9815;52.334;20.890;2024-03-22T03:56:32;7.50;99.90
19359;DHT22;9815;52.334;20.890;2024-03-22T03:58:58;7.50;99.90
19359;DHT22;9815;52.334;20.890;2024-03-22T04:01:24;7.50;99.90
19359;DHT22;9815;52.334;20.890;2024-03-22T04:03:50;7.60;99.90
19359;DHT22;9815;52.334;20.890;2024-03-22T04:06:16;7.60;99.90
19359;DHT22;9815;52.334;20.890;2024-03-22T04:08:42;7.60;99.90
19359;DHT22;9815;52.334;20.890;2024-03-22T04:11:09;7.50;99.90
19359;DHT22;9815;52.334;20.890;2024-03-22T04:13:36;7.50;99.90
19359;DHT22;9815;52.334;20.890;2024-03-22T04:16:02;7.50;99.90
19359;DHT22;9815;52.334;20.890;2024-03-22T04:18:28;7.50;99.90
19359;DHT22;9815;52.334;20.890;2024-03-22T04:20:55;7.50;99.90
19359;DHT22;9815;52.334;20.890;2024-03-22T04:23:21;7.40;99.90
19359;DHT22;9815;52.334;20.890;2024-03-22T04:25:58;7.40;99.90
19359;DHT22;9815;52.334;20.890;2024-03-22T04:28:25;7.40;99.90
19359;DHT22;9815;52.334;20.890;2024-03-22T04:30:59;7.50;99.90
19359;DHT22;9815;52.334;20.890;2024-03-22T04:33:26;7.50;99.90
19359;DHT22;9815;52.334;20.890;2024-03-22T04:35:53;7.50;99.90
19359;DHT22;9815;52.334;20.890;2024-03-22T04:38:19;7.40;99.90
19359;DHT22;9815;52.334;20.890;2024-03-22T04:40:46;7.40;99.90
19359;DHT22;9815;52.334;20.890;2024-03-22T04:43:12;7.30;99.90
19359;DHT22;9815;52.334;20.890;2024-03-22T04:45:38;7.30;99.90
19359;DHT22;9815;52.334;20.890;2024-03-22T04:48:04;7.40;99.90
19359;DHT22;9815;52.334;20.890;2024-03-22T04:50:31;7.30;99.90
19359;DHT22;9815;52.334;20.890;2024-03-22T04:52:57;7.30;99.90
19359;DHT22;9815;52.334;20.890;2024-03-22T04:55:23;7.30;99.90
19359;DHT22;9815;52.334;20.890;2024-03-22T04:57:51;7.30;99.90
19359;DHT22;9815;52.334;20.890;2024-03-22T05:00:17;7.30;99.90
19359;DHT22;9815;52.334;20.890;2024-03-22T05:02:43;7.30;99.90
19359;DHT22;9815;52.334;20.890;2024-03-22T05:05:09;7.30;99.90
19359;DHT22;9815;52.334;20.890;2024-03-22T05:07:35;7.30;99.90
19359;DHT22;9815;52.334;20.890;2024-03-22T05:10:01;7.20;99.90
19359;DHT22;9815;52.334;20.890;2024-03-22T05:12:29;7.30;99.90
19359;DHT22;9815;52.334;20.890;2024-03-22T05:14:55;7.40;99.90
19359;DHT22;9815;52.334;20.890;2024-03-22T05:17:21;7.40;99.90
19359;DHT22;9815;52.334;20.890;2024-03-22T05:19:47;7.40;99.90
19359;DHT22;9815;52.334;20.890;2024-03-22T05:22:13;7.30;99.90
19359;DHT22;9815;52.334;20.890;2024-03-22T05:24:39;7.30;99.90
19359;DHT22;9815;52.334;20.890;2024-03-22T05:27:05;7.40;99.90
19359;DHT22;9815;52.334;20.890;2024-03-22T05:29:31;7.40;99.90
19359;DHT22;9815;52.334;20.890;2024-03-22T05:31:57;7.50;99.90
19359;DHT22;9815;52.334;20.890;2024-03-22T05:34:23;7.50;99.90
19359;DHT22;9815;52.334;20.890;2024-03-22T05:36:49;7.50;99.90
19359;DHT22;9815;52.334;20.890;2024-03-22T05:39:15;7.50;99.90
19359;DHT22;9815;52.334;20.890;2024-03-22T05:41:42;7.50;99.90
19359;DHT22;9815;52.334;20.890;2024-03-22T05:44:08;7.50;99.90
19359;DHT22;9815;52.334;20.890;2024-03-22T05:46:34;7.50;99.90
19359;DHT22;9815;52.334;20.890;2024-03-22T05:49:00;7.50;99.90
19359;DHT22;9815;52.334;20.890;2024-03-22T05:51:26;7.50;99.90
19359;DHT22;9815;52.334;20.890;2024-03-22T05:53:53;7.50;99.90
19359;DHT22;9815;52.334;20.890;2024-03-22T05:56:19;7.40;99.90
19359;DHT22;9815;52.334;20.890;2024-03-22T05:58:45;7.40;99.90
19359;DHT22;9815;52.334;20.890;2024-03-22T06:01:11;7.50;99.90
19359;DHT22;9815;52.334;20.890;2024-03-22T06:03:37;7.40;99.90
19359;DHT22;9815;52.334;20.890;2024-03-22T06:06:03;7.50;99.90
19359;DHT22;9815;52.334;20.890;2024-03-22T06:08:29;7.50;99.90
19359;DHT22;9815;52.334;20.890;2024-03-22T06:10:57;7.50;99.90
19359;DHT22;9815;52.334;20.890;2024-03-22T06:13:23;7.50;99.90
19359;DHT22;9815;52.334;20.890;2024-03-22T06:15:49;7.60;99.90
19359;DHT22;9815;52.334;20.890;2024-03-22T06:18:16;7.60;99.90
19359;DHT22;9815;52.334;20.890;2024-03-22T06:20:42;7.70;99.90
19359;DHT22;9815;52.334;20.890;2024-03-22T06:23:09;7.60;99.90
19359;DHT22;9815;52.334;20.890;2024-03-22T06:25:36;7.60;99.90
19359;DHT22;9815;52.334;20.890;2024-03-22T06:28:02;7.60;99.90
19359;DHT22;9815;52.334;20.890;2024-03-22T06:30:28;7.60;99.90
19359;DHT22;9815;52.334;20.890;2024-03-22T06:32:54;7.60;99.90
19359;DHT22;9815;52.334;20.890;2024-03-22T06:35:21;7.70;99.90
19359;DHT22;9815;52.334;20.890;2024-03-22T06:37:47;7.70;99.90
19359;DHT22;9815;52.334;20.890;2024-03-22T06:40:15;7.80;99.90
19359;DHT22;9815;52.334;20.890;2024-03-22T06:42:41;7.80;99.90
19359;DHT22;9815;52.334;20.890;2024-03-22T06:45:07;7.90;99.90
19359;DHT22;9815;52.334;20.890;2024-03-22T06:47:33;7.90;99.90
19359;DHT22;9815;52.334;20.890;2024-03-22T06:49:59;7.80;99.90
19359;DHT22;9815;52.334;20.890;2024-03-22T06:52:25;7.90;99.90
19359;DHT22;9815;52.334;20.890;2024-03-22T06:54:51;7.90;99.90
19359;DHT22;9815;52.334;20.890;2024-03-22T06:57:19;7.90;99.90
19359;DHT22;9815;52.334;20.890;2024-03-22T06:59:45;7.80;99.90
19359;DHT22;9815;52.334;20.890;2024-03-22T07:02:11;7.80;99.90
19359;DHT22;9815;52.334;20.890;2024-03-22T07:04:38;7.90;99.90
19359;DHT22;9815;52.334;20.890;2024-03-22T07:07:04;7.90;99.90
19359;DHT22;9815;52.334;20.890;2024-03-22T07:09:33;7.90;99.90
19359;DHT22;9815;52.334;20.890;2024-03-22T07:11:59;8.00;99.90
19359;DHT22;9815;52.334;20.890;2024-03-22T07:14:25;7.90;99.90
19359;DHT22;9815;52.334;20.890;2024-03-22T07:16:51;7.90;99.90
19359;DHT22;9815;52.334;20.890;2024-03-22T07:19:20;7.90;99.90
19359;DHT22;9815;52.334;20.890;2024-03-22T07:21:49;8.00;99.90
19359;DHT22;9815;52.334;20.890;2024-03-22T07:24:15;8.00;99.90
19359;DHT22;9815;52.334;20.890;2024-03-22T07:26:41;8.10;99.90
19359;DHT22;9815;52.334;20.890;2024-03-22T07:29:07;8.00;99.90
19359;DHT22;9815;52.334;20.890;2024-03-22T07:31:33;8.00;99.90
19359;DHT22;9815;52.334;20.890;2024-03-22T07:33:59;8.10;99.90
19359;DHT22;9815;52.334;20.890;2024-03-22T07:36:25;8.10;99.90
19359;DHT22;9815;52.334;20.890;2024-03-22T07:38:52;8.10;99.90
19359;DHT22;9815;52.334;20.890;2024-03-22T07:41:18;8.20;99.90
19359;DHT22;9815;52.334;20.890;2024-03-22T07:43:44;8.20;99.90
19359;DHT22;9815;52.334;20.890;2024-03-22T07:46:10;8.20;99.90
19359;DHT22;9815;52.334;20.890;2024-03-22T07:48:37;8.20;99.90
19359;DHT22;9815;52.334;20.890;2024-03-22T07:51:03;8.20;99.90
19359;DHT22;9815;52.334;20.890;2024-03-22T07:53:29;8.30;99.90
19359;DHT22;9815;52.334;20.890;2024-03-22T07:55:56;8.30;99.90
19359;DHT22;9815;52.334;20.890;2024-03-22T07:58:22;8.30;99.90
19359;DHT22;9815;52.334;20.890;2024-03-22T08:00:48;8.40;99.90
19359;DHT22;9815;52.334;20.890;2024-03-22T08:03:15;8.30;99.90
19359;DHT22;9815;52.334;20.890;2024-03-22T08:05:42;8.30;99.90
19359;DHT22;9815;52.334;20.890;2024-03-22T08:08:08;8.30;99.90
19359;DHT22;9815;52.334;20.890;2024-03-22T08:10:34;8.30;99.90
19359;DHT22;9815;52.334;20.890;2024-03-22T08:13:01;8.30;99.90
19359;DHT22;9815;52.334;20.890;2024-03-22T08:15:27;8.30;99.90
19359;DHT22;9815;52.334;20.890;2024-03-22T08:17:53;8.30;99.90
19359;DHT22;9815;52.334;20.890;2024-03-22T08:20:19;8.30;99.90
19359;DHT22;9815;52.334;20.890;2024-03-22T08:22:45;8.40;99.90
19359;DHT22;9815;52.334;20.890;2024-03-22T08:25:11;8.40;99.90
19359;DHT22;9815;52.334;20.890;2024-03-22T08:27:38;8.40;99.90
19359;DHT22;9815;52.334;20.890;2024-03-22T08:30:05;8.60;99.90
19359;DHT22;9815;52.334;20.890;2024-03-22T08:32:31;8.50;99.90
19359;DHT22;9815;52.334;20.890;2024-03-22T08:34:57;8.50;99.90
19359;DHT22;9815;52.334;20.890;2024-03-22T08:37:23;8.50;99.90
19359;DHT22;9815;52.334;20.890;2024-03-22T08:39:49;8.50;99.90
19359;DHT22;9815;52.334;20.890;2024-03-22T08:42:15;8.50;99.90
19359;DHT22;9815;52.334;20.890;2024-03-22T08:44:41;8.60;99.90
19359;DHT22;9815;52.334;20.890;2024-03-22T08:47:08;8.60;99.90
19359;DHT22;9815;52.334;20.890;2024-03-22T08:49:34;8.60;99.90
19359;DHT22;9815;52.334;20.890;2024-03-22T08:52:02;8.60;99.90
19359;DHT22;9815;52.334;20.890;2024-03-22T08:54:28;8.60;99.90
19359;DHT22;9815;52.334;20.890;2024-03-22T08:56:54;8.50;99.90
19359;DHT22;9815;52.334;20.890;2024-03-22T08:59:20;8.60;99.90
19359;DHT22;9815;52.334;20.890;2024-03-22T09:01:47;8.70;99.90
19359;DHT22;9815;52.334;20.890;2024-03-22T09:04:14;8.70;99.90
19359;DHT22;9815;52.334;20.890;2024-03-22T09:06:41;8.80;99.90
19359;DHT22;9815;52.334;20.890;2024-03-22T09:09:07;8.80;99.90
19359;DHT22;9815;52.334;20.890;2024-03-22T09:11:34;8.90;99.90
19359;DHT22;9815;52.334;20.890;2024-03-22T09:14:00;8.80;99.90
19359;DHT22;9815;52.334;20.890;2024-03-22T09:16:26;8.80;99.90
19359;DHT22;9815;52.334;20.890;2024-03-22T09:18:52;8.80;99.90
19359;DHT22;9815;52.334;20.890;2024-03-22T09:21:18;8.90;99.90
19359;DHT22;9815;52.334;20.890;2024-03-22T09:23:44;8.90;99.90
19359;DHT22;9815;52.334;20.890;2024-03-22T09:26:10;8.90;99.90
19359;DHT22;9815;52.334;20.890;2024-03-22T09:28:37;9.00;99.90
19359;DHT22;9815;52.334;20.890;2024-03-22T09:31:04;9.10;99.90
19359;DHT22;9815;52.334;20.890;2024-03-22T09:33:36;9.00;99.90
19359;DHT22;9815;52.334;20.890;2024-03-22T09:36:03;9.00;99.90
19359;DHT22;9815;52.334;20.890;2024-03-22T09:38:29;9.00;99.90
19359;DHT22;9815;52.334;20.890;2024-03-22T09:40:55;9.00;99.90
19359;DHT22;9815;52.334;20.890;2024-03-22T09:43:21;9.00;99.90
19359;DHT22;9815;52.334;20.890;2024-03-22T09:45:49;9.00;99.90
19359;DHT22;9815;52.334;20.890;2024-03-22T09:48:19;9.10;99.90
19359;DHT22;9815;52.334;20.890;2024-03-22T09:50:49;9.10;99.90
19359;DHT22;9815;52.334;20.890;2024-03-22T09:53:21;9.10;99.90
19359;DHT22;9815;52.334;20.890;2024-03-22T09:55:49;9.20;99.90
19359;DHT22;9815;52.334;20.890;2024-03-22T09:58:16;9.10;99.90
19359;DHT22;9815;52.334;20.890;2024-03-22T10:00:45;9.20;99.90
19359;DHT22;9815;52.334;20.890;2024-03-22T10:03:11;9.20;99.90
19359;DHT22;9815;52.334;20.890;2024-03-22T10:05:37;9.30;99.90
19359;DHT22;9815;52.334;20.890;2024-03-22T10:08:04;9.30;99.90
19359;DHT22;9815;52.334;20.890;2024-03-22T10:10:33;9.30;99.90
19359;DHT22;9815;52.334;20.890;2024-03-22T10:13:03;9.30;99.90
19359;DHT22;9815;52.334;20.890;2024-03-22T10:15:30;9.30;99.90
19359;DHT22;9815;52.334;20.890;2024-03-22T10:17:57;9.20;99.90
19359;DHT22;9815;52.334;20.890;2024-03-22T10:20:24;9.10;99.90
19359;DHT22;9815;52.334;20.890;2024-03-22T10:22:56;9.10;99.90
19359;DHT22;9815;52.334;20.890;2024-03-22T10:25:24;9.10;99.90
19359;DHT22;9815;52.334;20.890;2024-03-22T10:27:51;9.10;99.90
19359;DHT22;9815;52.334;20.890;2024-03-22T10:30:17;9.10;99.90
19359;DHT22;9815;52.334;20.890;2024-03-22T10:32:46;9.20;99.90
19359;DHT22;9815;52.334;20.890;2024-03-22T10:35:15;9.20;99.90
19359;DHT22;9815;52.334;20.890;2024-03-22T10:37:41;9.10;99.90
19359;DHT22;9815;52.334;20.890;2024-03-22T10:40:08;9.00;99.90
19359;DHT22;9815;52.334;20.890;2024-03-22T10:42:42;9.00;99.90
19359;DHT22;9815;52.334;20.890;2024-03-22T10:45:10;9.00;99.90
19359;DHT22;9815;52.334;20.890;2024-03-22T10:47:38;9.00;99.90
19359;DHT22;9815;52.334;20.890;2024-03-22T10:50:09;9.00;99.90
19359;DHT22;9815;52.334;20.890;2024-03-22T10:52:48;9.00;99.90
19359;DHT22;9815;52.334;20.890;2024-03-22T10:55:33;9.10;99.90
19359;DHT22;9815;52.334;20.890;2024-03-22T10:58:00;9.00;99.90
19359;DHT22;9815;52.334;20.890;2024-03-22T11:00:34;9.00;99.90
19359;DHT22;9815;52.334;20.890;2024-03-22T11:03:04;9.00;99.90
19359;DHT22;9815;52.334;20.890;2024-03-22T11:05:30;9.20;99.90
19359;DHT22;9815;52.334;20.890;2024-03-22T11:10:30;9.30;99.90
19359;DHT22;9815;52.334;20.890;2024-03-22T11:13:04;9.40;99.90
19359;DHT22;9815;52.334;20.890;2024-03-22T11:15:31;9.50;99.90
19359;DHT22;9815;52.334;20.890;2024-03-22T11:17:58;9.70;99.90
19359;DHT22;9815;52.334;20.890;2024-03-22T11:20:25;9.80;99.90
19359;DHT22;9815;52.334;20.890;2024-03-22T11:22:52;10.00;99.90
19359;DHT22;9815;52.334;20.890;2024-03-22T11:25:19;10.20;99.90
19359;DHT22;9815;52.334;20.890;2024-03-22T11:27:46;10.40;99.90
19359;DHT22;9815;52.334;20.890;2024-03-22T11:30:12;10.40;99.90
19359;DHT22;9815;52.334;20.890;2024-03-22T11:32:39;10.40;99.90
19359;DHT22;9815;52.334;20.890;2024-03-22T11:35:13;10.30;99.90
19359;DHT22;9815;52.334;20.890;2024-03-22T11:37:39;10.30;99.90
19359;DHT22;9815;52.334;20.890;2024-03-22T11:40:09;10.20;99.90
19359;DHT22;9815;52.334;20.890;2024-03-22T11:42:40;10.10;99.90
19359;DHT22;9815;52.334;20.890;2024-03-22T11:45:08;10.00;99.90
19359;DHT22;9815;52.334;20.890;2024-03-22T11:47:36;9.90;99.90
19359;DHT22;9815;52.334;20.890;2024-03-22T11:50:03;9.80;99.90
19359;DHT22;9815;52.334;20.890;2024-03-22T11:52:29;9.80;99.90
19359;DHT22;9815;52.334;20.890;2024-03-22T11:54:56;9.70;99.90
19359;DHT22;9815;52.334;20.890;2024-03-22T11:57:23;9.70;99.90
19359;DHT22;9815;52.334;20.890;2024-03-22T11:59:50;9.60;99.90
19359;DHT22;9815;52.334;20.890;2024-03-22T12:02:16;9.70;99.90
19359;DHT22;9815;52.334;20.890;2024-03-22T12:04:46;9.80;99.90
19359;DHT22;9815;52.334;20.890;2024-03-22T12:07:17;9.80;99.90
19359;DHT22;9815;52.334;20.890;2024-03-22T12:09:46;9.90;99.90
19359;DHT22;9815;52.334;20.890;2024-03-22T12:12:13;10.00;99.90
19359;DHT22;9815;52.334;20.890;2024-03-22T12:14:40;10.00;99.90
19359;DHT22;9815;52.334;20.890;2024-03-22T12:17:07;9.90;99.90
19359;DHT22;9815;52.334;20.890;2024-03-22T12:19:34;9.80;99.90
19359;DHT22;9815;52.334;20.890;2024-03-22T12:22:01;9.80;99.90
19359;DHT22;9815;52.334;20.890;2024-03-22T12:24:27;9.90;99.90
19359;DHT22;9815;52.334;20.890;2024-03-22T12:26:54;10.10;99.90
19359;DHT22;9815;52.334;20.890;2024-03-22T12:29:20;10.20;99.90
19359;DHT22;9815;52.334;20.890;2024-03-22T12:31:46;10.20;99.90
19359;DHT22;9815;52.334;20.890;2024-03-22T12:34:13;10.20;99.90
19359;DHT22;9815;52.334;20.890;2024-03-22T12:36:39;10.20;99.90
19359;DHT22;9815;52.334;20.890;2024-03-22T12:39:05;10.20;99.90
19359;DHT22;9815;52.334;20.890;2024-03-22T12:41:32;10.10;99.90
19359;DHT22;9815;52.334;20.890;2024-03-22T12:43:59;10.10;99.90
19359;DHT22;9815;52.334;20.890;2024-03-22T12:46:26;10.00;99.90
19359;DHT22;9815;52.334;20.890;2024-03-22T12:48:53;10.00;99.90
19359;DHT22;9815;52.334;20.890;2024-03-22T12:51:20;10.00;99.90
19359;DHT22;9815;52.334;20.890;2024-03-22T12:53:46;10.00;99.90
19359;DHT22;9815;52.334;20.890;2024-03-22T12:56:13;9.90;99.90
19359;DHT22;9815;52.334;20.890;2024-03-22T12:58:42;9.90;99.90
19359;DHT22;9815;52.334;20.890;2024-03-22T13:01:09;10.00;99.90
19359;DHT22;9815;52.334;20.890;2024-03-22T13:03:37;10.10;99.90
19359;DHT22;9815;52.334;20.890;2024-03-22T13:06:04;10.20;99.90
19359;DHT22;9815;52.334;20.890;2024-03-22T13:08:32;10.30;99.90
19359;DHT22;9815;52.334;20.890;2024-03-22T13:10:58;10.40;99.90
19359;DHT22;9815;52.334;20.890;2024-03-22T13:13:24;10.50;99.90
19359;DHT22;9815;52.334;20.890;2024-03-22T13:15:50;10.50;99.90
19359;DHT22;9815;52.334;20.890;2024-03-22T13:18:16;10.50;99.90
19359;DHT22;9815;52.334;20.890;2024-03-22T13:20:42;10.50;99.90
19359;DHT22;9815;52.334;20.890;2024-03-22T13:23:08;10.70;99.90
19359;DHT22;9815;52.334;20.890;2024-03-22T13:25:35;10.80;99.90
19359;DHT22;9815;52.334;20.890;2024-03-22T13:28:03;10.80;99.90
19359;DHT22;9815;52.334;20.890;2024-03-22T13:30:31;11.00;99.90
19359;DHT22;9815;52.334;20.890;2024-03-22T13:32:57;11.00;99.90
19359;DHT22;9815;52.334;20.890;2024-03-22T13:35:25;11.00;99.90
19359;DHT22;9815;52.334;20.890;2024-03-22T13:37:51;11.00;99.90
19359;DHT22;9815;52.334;20.890;2024-03-22T13:40:17;11.00;99.90
19359;DHT22;9815;52.334;20.890;2024-03-22T13:42:43;10.90;99.90
19359;DHT22;9815;52.334;20.890;2024-03-22T13:45:09;11.00;99.90
19359;DHT22;9815;52.334;20.890;2024-03-22T13:47:36;11.00;99.90
19359;DHT22;9815;52.334;20.890;2024-03-22T13:50:07;11.00;99.90
19359;DHT22;9815;52.334;20.890;2024-03-22T13:52:36;10.90;99.90
19359;DHT22;9815;52.334;20.890;2024-03-22T13:55:02;10.80;99.90
19359;DHT22;9815;52.334;20.890;2024-03-22T13:57:28;10.80;99.90
19359;DHT22;9815;52.334;20.890;2024-03-22T13:59:54;10.70;99.90
19359;DHT22;9815;52.334;20.890;2024-03-22T14:02:20;10.70;99.90
19359;DHT22;9815;52.334;20.890;2024-03-22T14:04:47;10.70;99.90
19359;DHT22;9815;52.334;20.890;2024-03-22T14:07:13;10.70;99.90
19359;DHT22;9815;52.334;20.890;2024-03-22T14:09:39;10.60;99.90
19359;DHT22;9815;52.334;20.890;2024-03-22T14:12:06;10.60;99.90
19359;DHT22;9815;52.334;20.890;2024-03-22T14:14:32;10.60;99.90
19359;DHT22;9815;52.334;20.890;2024-03-22T14:16:59;10.60;99.90
19359;DHT22;9815;52.334;20.890;2024-03-22T14:19:25;10.60;99.90
19359;DHT22;9815;52.334;20.890;2024-03-22T14:21:51;10.70;99.90
19359;DHT22;9815;52.334;20.890;2024-03-22T14:24:17;10.70;99.90
19359;DHT22;9815;52.334;20.890;2024-03-22T14:26:43;10.60;99.90
19359;DHT22;9815;52.334;20.890;2024-03-22T14:29:09;10.60;99.90
19359;DHT22;9815;52.334;20.890;2024-03-22T14:31:36;10.60;99.90
19359;DHT22;9815;52.334;20.890;2024-03-22T14:34:02;10.60;99.90
19359;DHT22;9815;52.334;20.890;2024-03-22T14:36:29;10.60;99.90
19359;DHT22;9815;52.334;20.890;2024-03-22T14:38:55;10.50;99.90
19359;DHT22;9815;52.334;20.890;2024-03-22T14:41:21;10.60;99.90
19359;DHT22;9815;52.334;20.890;2024-03-22T14:43:47;10.50;99.90
19359;DHT22;9815;52.334;20.890;2024-03-22T14:46:13;10.60;99.90
19359;DHT22;9815;52.334;20.890;2024-03-22T14:48:39;10.60;99.90
19359;DHT22;9815;52.334;20.890;2024-03-22T14:51:06;10.60;99.90
19359;DHT22;9815;52.334;20.890;2024-03-22T14:53:32;10.60;99.90
19359;DHT22;9815;52.334;20.890;2024-03-22T14:56:02;10.50;99.90
19359;DHT22;9815;52.334;20.890;2024-03-22T14:58:32;10.50;99.90
19359;DHT22;9815;52.334;20.890;2024-03-22T15:01:00;10.40;99.90
19359;DHT22;9815;52.334;20.890;2024-03-22T15:03:27;10.40;99.90
19359;DHT22;9815;52.334;20.890;2024-03-22T15:05:55;10.30;99.90
19359;DHT22;9815;52.334;20.890;2024-03-22T15:08:21;10.30;99.90
19359;DHT22;9815;52.334;20.890;2024-03-22T15:10:48;10.20;99.90
19359;DHT22;9815;52.334;20.890;2024-03-22T15:13:15;10.10;99.90
19359;DHT22;9815;52.334;20.890;2024-03-22T15:15:42;10.00;99.90
19359;DHT22;9815;52.334;20.890;2024-03-22T15:18:09;10.00;99.90
19359;DHT22;9815;52.334;20.890;2024-03-22T15:20:35;10.00;99.90
19359;DHT22;9815;52.334;20.890;2024-03-22T15:23:02;9.90;99.90
19359;DHT22;9815;52.334;20.890;2024-03-22T15:25:29;9.90;99.90
19359;DHT22;9815;52.334;20.890;2024-03-22T15:27:55;9.80;99.90
19359;DHT22;9815;52.334;20.890;2024-03-22T15:30:25;9.80;99.90
19359;DHT22;9815;52.334;20.890;2024-03-22T15:32:53;9.80;99.90
19359;DHT22;9815;52.334;20.890;2024-03-22T15:35:21;9.80;99.90
19359;DHT22;9815;52.334;20.890;2024-03-22T15:37:47;9.70;99.90
19359;DHT22;9815;52.334;20.890;2024-03-22T15:40:14;9.70;99.90
19359;DHT22;9815;52.334;20.890;2024-03-22T15:42:40;9.50;99.90